createdAt,value
2019-02-02T00:00:56.738Z,0
2019-02-02T00:01:57.839Z,0
2019-02-02T00:02:58.252Z,0
2019-02-02T00:03:58.493Z,0
2019-02-02T00:04:59.188Z,0
2019-02-02T00:05:59.601Z,0
2019-02-02T00:06:59.733Z,0
2019-02-02T00:08:00.875Z,0
2019-02-02T00:09:01.971Z,0
2019-02-02T00:10:02.542Z,0
2019-02-02T00:11:02.947Z,0
2019-02-02T00:12:04.492Z,0
2019-02-02T00:13:04.182Z,0
2019-02-02T00:14:04.701Z,0
2019-02-02T00:15:06.396Z,0
2019-02-02T00:16:07.363Z,0
2019-02-02T00:17:07.603Z,0
2019-02-02T00:18:08.170Z,0
2019-02-02T00:19:07.991Z,0
2019-02-02T00:20:08.982Z,0
2019-02-02T00:21:09.670Z,0
2019-02-02T00:22:10.082Z,0
2019-02-02T00:23:10.492Z,0
2019-02-02T00:24:11.901Z,0
2019-02-02T00:25:13.588Z,0
2019-02-02T00:26:14.003Z,0
2019-02-02T00:27:14.693Z,0
2019-02-02T00:28:15.101Z,0
2019-02-02T00:29:16.205Z,0
2019-02-02T00:30:16.166Z,0
2019-02-02T00:31:16.293Z,0
2019-02-02T00:32:17.704Z,0
2019-02-02T00:33:18.115Z,0
2019-02-02T00:34:18.386Z,0
2019-02-02T00:35:19.350Z,0
2019-02-02T00:36:20.162Z,0
2019-02-02T00:37:19.860Z,0
2019-02-02T00:38:21.339Z,0
2019-02-02T00:39:22.437Z,0
2019-02-02T00:40:23.262Z,0
2019-02-02T00:41:23.963Z,0
2019-02-02T00:42:24.159Z,0
2019-02-02T00:43:24.977Z,0
2019-02-02T00:44:25.667Z,0
2019-02-02T00:45:26.632Z,0
2019-02-02T00:46:27.044Z,0
2019-02-02T00:47:27.732Z,0
2019-02-02T00:48:28.990Z,0
2019-02-02T00:49:29.121Z,0
2019-02-02T00:50:29.253Z,0
2019-02-02T00:51:29.673Z,0
2019-02-02T00:52:30.636Z,0
2019-02-02T00:53:31.114Z,0
2019-02-02T00:54:32.478Z,0
2019-02-02T00:55:33.168Z,0
2019-02-02T00:56:33.580Z,0
2019-02-02T00:57:34.374Z,0
2019-02-02T00:58:35.338Z,0
2019-02-02T00:59:35.747Z,0
2019-02-02T01:00:36.160Z,0
2019-02-02T01:01:37.544Z,0
2019-02-02T01:02:37.512Z,0
2019-02-02T01:03:38.220Z,0
2019-02-02T01:04:38.631Z,0
2019-02-02T01:05:39.602Z,0
2019-02-02T01:06:39.743Z,0
2019-02-02T01:07:41.445Z,0
2019-02-02T01:08:42.429Z,0
2019-02-02T01:09:43.275Z,0
2019-02-02T01:10:44.405Z,0
2019-02-02T01:11:57.407Z,0
2019-02-02T01:12:57.783Z,0
2019-02-02T01:13:58.747Z,0
2019-02-02T01:14:59.712Z,0
2019-02-02T01:15:59.508Z,0
2019-02-02T01:17:00.207Z,0
2019-02-02T01:18:00.962Z,0
2019-02-02T01:19:01.651Z,0
2019-02-02T01:20:02.611Z,0
2019-02-02T01:21:03.018Z,0
2019-02-02T01:22:04.145Z,0
2019-02-02T01:23:05.292Z,0
2019-02-02T01:24:05.710Z,0
2019-02-02T01:25:06.675Z,0
2019-02-02T01:26:07.088Z,0
2019-02-02T01:27:08.141Z,0
2019-02-02T01:28:08.390Z,0
2019-02-02T01:29:08.796Z,0
2019-02-02T01:30:10.110Z,0
2019-02-02T01:31:10.799Z,0
2019-02-02T01:32:14.847Z,0
2019-02-02T01:33:12.122Z,0
2019-02-02T01:34:12.806Z,0
2019-02-02T01:35:14.044Z,0
2019-02-02T01:36:14.457Z,0
2019-02-02T01:37:15.182Z,0
2019-02-02T01:38:16.428Z,0
2019-02-02T01:39:16.684Z,0
2019-02-02T01:40:18.059Z,0
2019-02-02T01:41:19.030Z,0
2019-02-02T01:42:19.760Z,0
2019-02-02T01:43:20.600Z,0
2019-02-02T01:44:21.293Z,0
2019-02-02T01:45:22.366Z,0
2019-02-02T01:46:22.783Z,0
2019-02-02T01:47:23.298Z,0
2019-02-02T01:48:23.430Z,0
2019-02-02T01:49:24.412Z,0
2019-02-02T01:50:24.976Z,0
2019-02-02T01:51:25.503Z,0
2019-02-02T01:52:26.192Z,0
2019-02-02T01:53:26.897Z,0
2019-02-02T01:54:27.303Z,0
2019-02-02T01:55:28.440Z,0
2019-02-02T01:56:29.405Z,0
2019-02-02T01:57:30.643Z,0
2019-02-02T01:58:31.047Z,0
2019-02-02T01:59:32.741Z,0
2019-02-02T02:00:33.977Z,0
2019-02-02T02:01:34.382Z,0
2019-02-02T02:02:34.924Z,0
2019-02-02T02:03:36.048Z,0
2019-02-02T02:04:36.733Z,0
2019-02-02T02:05:38.202Z,0
2019-02-02T02:06:38.892Z,0
2019-02-02T02:07:39.021Z,0
2019-02-02T02:08:39.459Z,0
2019-02-02T02:09:40.895Z,0
2019-02-02T02:10:41.583Z,0
2019-02-02T02:11:42.270Z,0
2019-02-02T02:12:43.064Z,0
2019-02-02T02:13:44.314Z,0
2019-02-02T02:14:45.279Z,0
2019-02-02T02:15:45.966Z,0
2019-02-02T02:16:46.373Z,0
2019-02-02T02:17:47.779Z,0
2019-02-02T02:18:48.740Z,0
2019-02-02T02:19:49.709Z,0
2019-02-02T02:20:50.119Z,0
2019-02-02T02:21:50.806Z,0
2019-02-02T02:22:51.215Z,0
2019-02-02T02:23:51.765Z,0
2019-02-02T02:24:53.290Z,0
2019-02-02T02:25:53.972Z,0
2019-02-02T02:26:54.659Z,0
2019-02-02T02:27:55.345Z,0
2019-02-02T02:28:56.027Z,0
2019-02-02T02:29:56.711Z,0
2019-02-02T02:30:56.942Z,0
2019-02-02T02:31:58.674Z,0
2019-02-02T02:32:59.520Z,0
2019-02-02T02:33:59.220Z,0
2019-02-02T02:34:59.626Z,0
2019-02-02T02:36:00.124Z,0
2019-02-02T02:37:01.513Z,0
2019-02-02T02:38:01.615Z,0
2019-02-02T02:39:02.601Z,0
2019-02-02T02:40:03.866Z,0
2019-02-02T02:41:04.394Z,0
2019-02-02T02:42:05.083Z,0
2019-02-02T02:43:06.092Z,0
2019-02-02T02:44:07.260Z,0
2019-02-02T02:45:08.356Z,0
2019-02-02T02:46:09.887Z,0
2019-02-02T02:47:09.850Z,0
2019-02-02T02:48:11.207Z,0
2019-02-02T02:49:12.037Z,0
2019-02-02T02:50:12.172Z,0
2019-02-02T02:51:14.287Z,0
2019-02-02T02:52:13.721Z,0
2019-02-02T02:53:14.962Z,0
2019-02-02T02:54:15.723Z,0
2019-02-02T02:55:17.147Z,0
2019-02-02T02:56:17.117Z,0
2019-02-02T02:57:17.588Z,0
2019-02-02T02:58:18.389Z,0
2019-02-02T02:59:19.351Z,0
2019-02-02T03:00:20.219Z,0
2019-02-02T03:01:21.599Z,0
2019-02-02T03:02:22.445Z,0
2019-02-02T03:03:22.415Z,0
2019-02-02T03:04:22.848Z,0
2019-02-02T03:05:24.097Z,0
2019-02-02T03:06:25.066Z,0
2019-02-02T03:07:25.496Z,0
2019-02-02T03:08:27.026Z,0
2019-02-02T03:09:27.553Z,0
2019-02-02T03:10:28.824Z,0
2019-02-02T03:11:30.077Z,0
2019-02-02T03:12:30.043Z,0
2019-02-02T03:13:30.212Z,0
2019-02-02T03:14:31.541Z,0
2019-02-02T03:15:32.781Z,0
2019-02-02T03:16:33.468Z,0
2019-02-02T03:17:34.268Z,0
2019-02-02T03:18:34.327Z,0
2019-02-02T03:19:35.025Z,0
2019-02-02T03:20:35.984Z,0
2019-02-02T03:21:36.951Z,0
2019-02-02T03:22:37.672Z,0
2019-02-02T03:23:38.959Z,0
2019-02-02T03:24:38.928Z,0
2019-02-02T03:25:39.638Z,0
2019-02-02T03:26:39.831Z,0
2019-02-02T03:27:40.287Z,0
2019-02-02T03:28:55.073Z,0
2019-02-02T03:29:53.726Z,0
2019-02-02T03:30:55.109Z,0
2019-02-02T03:31:56.212Z,0
2019-02-02T03:32:57.048Z,0
2019-02-02T03:33:57.889Z,0
2019-02-02T03:34:58.854Z,0
2019-02-02T03:35:59.543Z,0
2019-02-02T03:37:00.648Z,0
2019-02-02T03:38:01.388Z,0
2019-02-02T03:39:02.231Z,0
2019-02-02T03:40:02.925Z,0
2019-02-02T03:41:04.737Z,0
2019-02-02T03:42:04.488Z,0
2019-02-02T03:43:06.084Z,0
2019-02-02T03:44:06.799Z,0
2019-02-02T03:45:08.002Z,0
2019-02-02T03:46:08.004Z,0
2019-02-02T03:47:09.246Z,0
2019-02-02T03:48:09.933Z,0
2019-02-02T03:49:10.361Z,0
2019-02-02T03:50:12.201Z,0
2019-02-02T03:51:12.892Z,0
2019-02-02T03:52:13.317Z,0
2019-02-02T03:53:13.724Z,0
2019-02-02T03:54:14.699Z,0
2019-02-02T03:55:15.960Z,0
2019-02-02T03:56:16.366Z,0
2019-02-02T03:57:16.776Z,0
2019-02-02T03:58:18.142Z,0
2019-02-02T03:59:18.558Z,0
2019-02-02T04:00:20.215Z,0
2019-02-02T04:01:19.909Z,0
2019-02-02T04:02:20.723Z,0
2019-02-02T04:03:21.129Z,0
2019-02-02T04:04:21.542Z,0
2019-02-02T04:05:22.788Z,0
2019-02-02T04:06:23.030Z,0
2019-02-02T04:07:23.494Z,0
2019-02-02T04:08:24.459Z,0
2019-02-02T04:09:24.867Z,0
2019-02-02T04:10:25.702Z,0
2019-02-02T04:11:26.718Z,0
2019-02-02T04:12:27.831Z,0
2019-02-02T04:13:28.517Z,0
2019-02-02T04:14:29.521Z,0
2019-02-02T04:15:30.225Z,0
2019-02-02T04:16:30.910Z,0
2019-02-02T04:17:31.317Z,0
2019-02-02T04:18:33.559Z,0
2019-02-02T04:19:32.692Z,0
2019-02-02T04:20:33.244Z,0
2019-02-02T04:21:33.743Z,0
2019-02-02T04:22:37.448Z,0
2019-02-02T04:23:38.414Z,0
2019-02-02T04:24:39.097Z,0
2019-02-02T04:25:39.610Z,0
2019-02-02T04:26:40.034Z,0
2019-02-02T04:27:41.442Z,0
2019-02-02T04:28:42.485Z,0
2019-02-02T04:29:42.457Z,0
2019-02-02T04:30:43.269Z,0
2019-02-02T04:31:43.688Z,0
2019-02-02T04:32:44.437Z,0
2019-02-02T04:33:45.764Z,0
2019-02-02T04:34:46.003Z,0
2019-02-02T04:35:46.133Z,0
2019-02-02T04:36:47.377Z,0
2019-02-02T04:37:48.066Z,0
2019-02-02T04:38:49.309Z,0
2019-02-02T04:39:49.997Z,0
2019-02-02T04:40:51.119Z,0
2019-02-02T04:41:52.082Z,0
2019-02-02T04:42:52.805Z,0
2019-02-02T04:43:53.776Z,0
2019-02-02T04:44:54.463Z,0
2019-02-02T04:45:54.872Z,0
2019-02-02T04:46:56.003Z,0
2019-02-02T04:47:57.411Z,0
2019-02-02T04:48:58.467Z,0
2019-02-02T04:49:59.428Z,0
2019-02-02T04:50:59.882Z,0
2019-02-02T04:52:00.568Z,0
2019-02-02T04:53:01.834Z,0
2019-02-02T04:54:01.816Z,0
2019-02-02T04:55:02.520Z,0
2019-02-02T04:56:03.231Z,0
2019-02-02T04:57:04.542Z,0
2019-02-02T04:58:05.230Z,0
2019-02-02T04:59:06.033Z,0
2019-02-02T05:00:06.325Z,0
2019-02-02T05:01:07.573Z,0
2019-02-02T05:02:07.707Z,0
2019-02-02T05:03:08.187Z,0
2019-02-02T05:04:09.427Z,0
2019-02-02T05:05:09.560Z,0
2019-02-02T05:06:10.969Z,0
2019-02-02T05:07:11.500Z,0
2019-02-02T05:08:12.181Z,0
2019-02-02T05:09:12.868Z,0
2019-02-02T05:10:13.551Z,0
2019-02-02T05:11:13.725Z,0
2019-02-02T05:12:14.419Z,0
2019-02-02T05:13:14.826Z,0
2019-02-02T05:14:14.957Z,0
2019-02-02T05:15:15.697Z,0
2019-02-02T05:16:16.380Z,0
2019-02-02T05:17:17.343Z,0
2019-02-02T05:18:17.751Z,0
2019-02-02T05:19:18.715Z,0
2019-02-02T05:20:19.534Z,0
2019-02-02T05:21:20.074Z,0
2019-02-02T05:22:21.034Z,0
2019-02-02T05:23:21.166Z,0
2019-02-02T05:24:22.573Z,0
2019-02-02T05:25:23.343Z,0
2019-02-02T05:26:23.766Z,0
2019-02-02T05:27:24.730Z,0
2019-02-02T05:28:25.699Z,0
2019-02-02T05:29:26.672Z,0
2019-02-02T05:30:27.647Z,0
2019-02-02T05:31:27.902Z,0
2019-02-02T05:32:28.422Z,0
2019-02-02T05:33:28.835Z,0
2019-02-02T05:34:30.520Z,0
2019-02-02T05:35:30.204Z,0
2019-02-02T05:36:30.711Z,0
2019-02-02T05:37:30.838Z,0
2019-02-02T05:38:32.248Z,0
2019-02-02T05:39:32.943Z,0
2019-02-02T05:40:33.187Z,0
2019-02-02T05:41:33.294Z,0
2019-02-02T05:42:34.034Z,0
2019-02-02T05:43:34.443Z,0
2019-02-02T05:44:35.404Z,0
2019-02-02T05:45:36.089Z,0
2019-02-02T05:46:37.055Z,0
2019-02-02T05:47:38.089Z,0
2019-02-02T05:48:38.318Z,0
2019-02-02T05:49:38.727Z,0
2019-02-02T05:50:40.414Z,0
2019-02-02T05:51:40.549Z,0
2019-02-02T05:52:41.234Z,0
2019-02-02T05:53:41.921Z,0
2019-02-02T05:54:43.326Z,0
2019-02-02T05:55:43.294Z,0
2019-02-02T05:56:44.046Z,0
2019-02-02T05:57:44.830Z,0
2019-02-02T05:58:45.512Z,0
2019-02-02T05:59:58.956Z,0
2019-02-02T06:00:59.800Z,0
2019-02-02T06:02:00.938Z,0
2019-02-02T06:03:02.901Z,0
2019-02-02T06:04:02.866Z,0
2019-02-02T06:05:04.273Z,0
2019-02-02T06:06:05.528Z,0
2019-02-02T06:07:06.213Z,0
2019-02-02T06:08:06.620Z,0
2019-02-02T06:09:07.141Z,0
2019-02-02T06:10:07.551Z,0
2019-02-02T06:11:09.253Z,0
2019-02-02T06:12:10.322Z,0
2019-02-02T06:13:10.007Z,0
2019-02-02T06:14:11.205Z,0
2019-02-02T06:15:11.611Z,0
2019-02-02T06:16:11.773Z,0
2019-02-02T06:17:12.902Z,0
2019-02-02T06:18:14.029Z,0
2019-02-02T06:19:14.724Z,0
2019-02-02T06:20:15.417Z,0
2019-02-02T06:21:16.138Z,0
2019-02-02T06:22:16.832Z,0
2019-02-02T06:23:17.792Z,0
2019-02-02T06:24:18.202Z,4
2019-02-02T06:25:20.389Z,4
2019-02-02T06:26:20.108Z,4
2019-02-02T06:27:20.795Z,4
2019-02-02T06:28:20.926Z,0
2019-02-02T06:29:21.615Z,4
2019-02-02T06:30:22.033Z,4
2019-02-02T06:31:22.865Z,4
2019-02-02T06:32:23.558Z,8
2019-02-02T06:33:24.690Z,4
2019-02-02T06:34:26.099Z,4
2019-02-02T06:35:26.629Z,8
2019-02-02T06:36:27.038Z,8
2019-02-02T06:37:27.167Z,12
2019-02-02T06:38:28.893Z,8
2019-02-02T06:39:29.432Z,8
2019-02-02T06:40:30.758Z,12
2019-02-02T06:41:30.590Z,12
2019-02-02T06:42:31.282Z,12
2019-02-02T06:43:32.666Z,16
2019-02-02T06:44:33.075Z,12
2019-02-02T06:45:33.764Z,16
2019-02-02T06:46:46.625Z,16
2019-02-02T06:47:47.012Z,20
2019-02-02T06:48:47.974Z,20
2019-02-02T06:49:48.389Z,20
2019-02-02T06:50:48.650Z,20
2019-02-02T06:51:49.054Z,20
2019-02-02T06:52:49.743Z,24
2019-02-02T06:53:50.267Z,28
2019-02-02T06:54:50.954Z,28
2019-02-02T06:55:51.091Z,32
2019-02-02T06:56:51.502Z,36
2019-02-02T06:57:52.599Z,40
2019-02-02T06:58:53.114Z,40
2019-02-02T06:59:53.527Z,44
2019-02-02T07:00:54.224Z,48
2019-02-02T07:01:54.633Z,48
2019-02-02T07:02:56.053Z,52
2019-02-02T07:03:56.739Z,52
2019-02-02T07:04:56.871Z,52
2019-02-02T07:05:57.849Z,60
2019-02-02T07:06:58.259Z,64
2019-02-02T07:07:58.829Z,68
2019-02-02T07:08:58.962Z,76
2019-02-02T07:09:59.368Z,80
2019-02-02T07:11:00.499Z,88
2019-02-02T07:12:01.300Z,92
2019-02-02T07:13:02.540Z,104
2019-02-02T07:14:02.502Z,116
2019-02-02T07:15:03.576Z,132
2019-02-02T07:16:04.267Z,160
2019-02-02T07:17:04.678Z,184
2019-02-02T07:18:06.074Z,192
2019-02-02T07:19:06.220Z,180
2019-02-02T07:20:06.920Z,172
2019-02-02T07:21:07.616Z,176
2019-02-02T07:22:08.752Z,192
2019-02-02T07:23:10.159Z,192
2019-02-02T07:24:11.124Z,184
2019-02-02T07:25:12.213Z,184
2019-02-02T07:26:12.185Z,196
2019-02-02T07:27:13.149Z,220
2019-02-02T07:28:13.277Z,240
2019-02-02T07:29:14.697Z,260
2019-02-02T07:30:14.831Z,264
2019-02-02T07:30:31.555Z,264
2019-02-02T07:31:28.125Z,252
2019-02-02T07:32:29.113Z,248
2019-02-02T07:33:30.363Z,252
2019-02-02T07:34:30.341Z,248
2019-02-02T07:35:30.709Z,240
2019-02-02T07:36:31.441Z,240
2019-02-02T07:37:31.856Z,232
2019-02-02T07:38:32.542Z,220
2019-02-02T07:39:33.786Z,200
2019-02-02T07:40:34.313Z,180
2019-02-02T07:41:34.692Z,176
2019-02-02T07:42:35.212Z,172
2019-02-02T07:43:36.902Z,180
2019-02-02T07:44:37.057Z,180
2019-02-02T07:45:38.186Z,184
2019-02-02T07:46:39.598Z,184
2019-02-02T07:47:40.568Z,184
2019-02-02T07:48:40.813Z,176
2019-02-02T07:49:41.779Z,164
2019-02-02T07:50:42.196Z,164
2019-02-02T07:51:43.040Z,168
2019-02-02T07:52:44.449Z,180
2019-02-02T07:53:45.414Z,200
2019-02-02T07:54:45.393Z,216
2019-02-02T07:55:45.667Z,232
2019-02-02T07:56:46.228Z,244
2019-02-02T07:57:47.916Z,268
2019-02-02T07:58:48.054Z,288
2019-02-02T07:59:48.744Z,312
2019-02-02T08:00:49.429Z,328
2019-02-02T08:01:49.665Z,352
2019-02-02T08:02:50.354Z,372
2019-02-02T08:03:51.051Z,388
2019-02-02T08:04:51.462Z,396
2019-02-02T08:05:51.872Z,396
2019-02-02T08:06:53.120Z,400
2019-02-02T08:07:53.252Z,408
2019-02-02T08:08:54.220Z,432
2019-02-02T08:09:54.912Z,468
2019-02-02T08:10:57.487Z,516
2019-02-02T08:11:57.495Z,572
2019-02-02T08:12:57.995Z,640
2019-02-02T08:13:58.713Z,736
2019-02-02T08:14:59.401Z,860
2019-02-02T08:15:59.531Z,992
2019-02-02T08:16:59.971Z,1092
2019-02-02T08:18:00.948Z,1064
2019-02-02T08:19:01.913Z,940
2019-02-02T08:20:02.922Z,820
2019-02-02T08:21:02.360Z,764
2019-02-02T08:22:03.779Z,760
2019-02-02T08:23:04.192Z,764
2019-02-02T08:24:04.884Z,752
2019-02-02T08:25:05.861Z,712
2019-02-02T08:26:05.827Z,672
2019-02-02T08:27:06.578Z,660
2019-02-02T08:28:07.008Z,676
2019-02-02T08:29:07.976Z,708
2019-02-02T08:30:08.491Z,732
2019-02-02T08:31:09.458Z,740
2019-02-02T08:32:09.161Z,724
2019-02-02T08:33:10.161Z,712
2019-02-02T08:34:10.300Z,728
2019-02-02T08:35:12.002Z,772
2019-02-02T08:36:12.688Z,848
2019-02-02T08:37:13.101Z,948
2019-02-02T08:38:14.067Z,1044
2019-02-02T08:39:14.835Z,1100
2019-02-02T08:40:14.864Z,1116
2019-02-02T08:41:15.833Z,1148
2019-02-02T08:42:16.229Z,1208
2019-02-02T08:43:16.920Z,1260
2019-02-02T08:44:17.623Z,1336
2019-02-02T08:45:19.233Z,1468
2019-02-02T08:46:18.639Z,1668
2019-02-02T08:47:20.055Z,1768
2019-02-02T08:48:21.468Z,1836
2019-02-02T08:49:22.175Z,2056
2019-02-02T08:50:22.887Z,2324
2019-02-02T08:51:23.857Z,2612
2019-02-02T08:52:24.392Z,2748
2019-02-02T08:53:25.362Z,2772
2019-02-02T08:54:25.814Z,2572
2019-02-02T08:55:26.131Z,2404
2019-02-02T08:56:26.945Z,2300
2019-02-02T08:57:27.034Z,2332
2019-02-02T08:58:28.436Z,2488
2019-02-02T08:59:29.216Z,2648
2019-02-02T09:00:28.906Z,2776
2019-02-02T09:01:29.323Z,2732
2019-02-02T09:02:31.004Z,2612
2019-02-02T09:03:30.985Z,2636
2019-02-02T09:04:32.346Z,2716
2019-02-02T09:05:33.426Z,2812
2019-02-02T09:06:47.635Z,2964
2019-02-02T09:07:48.751Z,3112
2019-02-02T09:08:49.446Z,3212
2019-02-02T09:09:50.138Z,3220
2019-02-02T09:10:50.556Z,3300
2019-02-02T09:11:51.523Z,3324
2019-02-02T09:12:52.350Z,3372
2019-02-02T09:13:53.323Z,3424
2019-02-02T09:14:53.571Z,3424
2019-02-02T09:15:54.005Z,3356
2019-02-02T09:16:54.982Z,3204
2019-02-02T09:17:56.077Z,2900
2019-02-02T09:18:56.768Z,2652
2019-02-02T09:19:57.179Z,2528
2019-02-02T09:20:57.596Z,2484
2019-02-02T09:21:58.903Z,2504
2019-02-02T09:23:11.356Z,2524
2019-02-02T09:24:12.753Z,2520
2019-02-02T09:25:13.276Z,2592
2019-02-02T09:26:13.819Z,2596
2019-02-02T09:27:13.912Z,2688
2019-02-02T09:28:14.344Z,2696
2019-02-02T09:29:15.036Z,2700
2019-02-02T09:30:17.108Z,2716
2019-02-02T09:31:18.358Z,2828
2019-02-02T09:32:18.780Z,2732
2019-02-02T09:33:20.233Z,2688
2019-02-02T09:34:21.518Z,2748
2019-02-02T09:35:22.489Z,2832
2019-02-02T09:36:22.467Z,2900
2019-02-02T09:37:23.642Z,3016
2019-02-02T09:38:24.341Z,3036
2019-02-02T09:39:25.047Z,3096
2019-02-02T09:40:27.680Z,3136
2019-02-02T09:41:28.092Z,3000
2019-02-02T09:42:29.466Z,2760
2019-02-02T09:43:30.183Z,2540
2019-02-02T09:44:31.316Z,2376
2019-02-02T09:45:32.400Z,2276
2019-02-02T09:46:32.832Z,2240
2019-02-02T09:47:32.966Z,2276
2019-02-02T09:48:34.663Z,2352
2019-02-02T09:49:34.356Z,2432
2019-02-02T09:50:35.495Z,2548
2019-02-02T09:51:36.188Z,2680
2019-02-02T09:52:36.603Z,2884
2019-02-02T09:53:37.293Z,3136
2019-02-02T09:54:37.791Z,3416
2019-02-02T09:55:38.481Z,3572
2019-02-02T09:56:41.299Z,3616
2019-02-02T09:57:41.317Z,3556
2019-02-02T09:58:42.285Z,3448
2019-02-02T09:59:43.255Z,3352
2019-02-02T10:00:44.222Z,3368
2019-02-02T10:01:44.361Z,3432
2019-02-02T10:02:48.001Z,3564
2019-02-02T10:03:49.019Z,3788
2019-02-02T10:04:49.635Z,4104
2019-02-02T10:05:50.677Z,4440
2019-02-02T10:06:53.185Z,4624
2019-02-02T10:07:53.162Z,4600
2019-02-02T10:08:53.850Z,4452
2019-02-02T10:09:54.261Z,4164
2019-02-02T10:10:55.233Z,3752
2019-02-02T10:11:55.370Z,3364
2019-02-02T10:12:56.895Z,3164
2019-02-02T10:13:56.971Z,3144
2019-02-02T10:14:57.798Z,3304
2019-02-02T10:15:57.929Z,3572
2019-02-02T10:16:58.640Z,4040
2019-02-02T10:18:03.285Z,4556
2019-02-02T10:19:07.174Z,5168
2019-02-02T10:19:16.084Z,5268
2019-02-02T10:20:14.223Z,5880
2019-02-02T10:21:14.361Z,6608
2019-02-02T10:22:15.336Z,7440
2019-02-02T10:23:16.027Z,8160
2019-02-02T10:24:16.444Z,9080
2019-02-02T10:25:18.191Z,7364
2019-02-02T10:26:18.910Z,7396
2019-02-02T10:27:19.639Z,8352
2019-02-02T10:28:20.469Z,10648
2019-02-02T10:29:20.720Z,11248
2019-02-02T10:30:24.529Z,8384
2019-02-02T10:31:25.507Z,6596
2019-02-02T10:32:26.365Z,6076
2019-02-02T10:33:27.349Z,6472
2019-02-02T10:34:28.043Z,7168
2019-02-02T10:35:28.537Z,7984
2019-02-02T10:36:29.227Z,7148
2019-02-02T10:37:29.923Z,6784
2019-02-02T10:38:30.448Z,8224
2019-02-02T10:39:30.862Z,10384
2019-02-02T10:40:32.224Z,10224
2019-02-02T10:41:32.985Z,9576
2019-02-02T10:42:33.675Z,9048
2019-02-02T10:43:34.926Z,7652
2019-02-02T10:44:35.364Z,6736
2019-02-02T10:45:36.379Z,6528
2019-02-02T10:46:37.065Z,6444
2019-02-02T10:47:37.483Z,6532
2019-02-02T10:48:38.191Z,6520
2019-02-02T10:49:39.159Z,5920
2019-02-02T10:50:39.284Z,5252
2019-02-02T10:51:40.977Z,4668
2019-02-02T10:52:40.952Z,4212
2019-02-02T10:53:41.922Z,4324
2019-02-02T10:54:42.057Z,4396
2019-02-02T10:55:43.472Z,4184
2019-02-02T10:56:46.639Z,3880
2019-02-02T10:57:45.480Z,3672
2019-02-02T10:58:46.174Z,3500
2019-02-02T10:59:49.547Z,3284
2019-02-02T11:00:47.929Z,3408
2019-02-02T11:01:52.677Z,3616
2019-02-02T11:02:54.218Z,3468
2019-02-02T11:03:54.744Z,3136
2019-02-02T11:04:56.433Z,2756
2019-02-02T11:05:57.110Z,2536
2019-02-02T11:06:57.849Z,2508
2019-02-02T11:07:58.473Z,2520
2019-02-02T11:08:59.217Z,2608
2019-02-02T11:10:00.000Z,2720
2019-02-02T11:11:01.192Z,2808
2019-02-02T11:12:00.829Z,2888
2019-02-02T11:13:02.582Z,2812
2019-02-02T11:14:04.766Z,2672
2019-02-02T11:15:05.355Z,2572
2019-02-02T11:16:08.764Z,2464
2019-02-02T11:17:06.068Z,2432
2019-02-02T11:18:05.831Z,2496
2019-02-02T11:19:07.668Z,2580
2019-02-02T11:20:09.770Z,2648
2019-02-02T11:21:10.554Z,2692
2019-02-02T11:22:10.396Z,2724
2019-02-02T11:23:11.361Z,2752
2019-02-02T11:24:11.934Z,2736
2019-02-02T11:25:12.517Z,2788
2019-02-02T11:26:13.502Z,2896
2019-02-02T11:27:15.303Z,3068
2019-02-02T11:28:16.468Z,3272
2019-02-02T11:29:17.292Z,3476
2019-02-02T11:30:17.699Z,3708
2019-02-02T11:31:17.709Z,3980
2019-02-02T11:32:18.691Z,4072
2019-02-02T11:33:19.107Z,4072
2019-02-02T11:34:19.359Z,4200
2019-02-02T11:35:20.053Z,4548
2019-02-02T11:36:20.548Z,4884
2019-02-02T11:37:21.355Z,5020
2019-02-02T11:38:21.769Z,5240
2019-02-02T11:39:22.737Z,5520
2019-02-02T11:40:23.178Z,5604
2019-02-02T11:41:24.693Z,5600
2019-02-02T11:42:25.384Z,5288
2019-02-02T11:43:26.523Z,5020
2019-02-02T11:44:27.225Z,4952
2019-02-02T11:45:28.237Z,4964
2019-02-02T11:46:28.932Z,5148
2019-02-02T11:47:29.371Z,5320
2019-02-02T11:48:30.346Z,5392
2019-02-02T11:49:31.041Z,5512
2019-02-02T11:50:31.461Z,5720
2019-02-02T11:51:31.557Z,5864
2019-02-02T11:52:32.535Z,5860
2019-02-02T11:53:32.670Z,5656
2019-02-02T11:54:33.807Z,5284
2019-02-02T11:55:34.510Z,5008
2019-02-02T11:56:35.610Z,4884
2019-02-02T11:57:36.874Z,4872
2019-02-02T11:58:36.565Z,5052
2019-02-02T11:59:37.257Z,5012
2019-02-02T12:00:38.051Z,5020
2019-02-02T12:01:38.634Z,4952
2019-02-02T12:02:51.240Z,4860
2019-02-02T12:03:51.759Z,4836
2019-02-02T12:04:52.443Z,4900
2019-02-02T12:05:52.863Z,5056
2019-02-02T12:06:53.415Z,5100
2019-02-02T12:07:53.833Z,5104
2019-02-02T12:08:54.805Z,5228
2019-02-02T12:09:54.943Z,5280
2019-02-02T12:10:55.809Z,5480
2019-02-02T12:11:56.914Z,5640
2019-02-02T12:12:57.438Z,5564
2019-02-02T12:13:57.707Z,5316
2019-02-02T12:14:58.490Z,5068
2019-02-02T12:15:59.197Z,4924
2019-02-02T12:17:00.175Z,5008
2019-02-02T12:18:00.310Z,5264
2019-02-02T12:19:02.278Z,5680
2019-02-02T12:20:02.976Z,6328
2019-02-02T12:21:03.130Z,6960
2019-02-02T12:22:04.387Z,7384
2019-02-02T12:23:04.938Z,7628
2019-02-02T12:24:17.842Z,7328
2019-02-02T12:25:18.670Z,7064
2019-02-02T12:26:19.361Z,6860
2019-02-02T12:27:20.054Z,6560
2019-02-02T12:28:20.765Z,6324
2019-02-02T12:29:20.904Z,6036
2019-02-02T12:30:22.040Z,5844
2019-02-02T12:31:22.550Z,5780
2019-02-02T12:32:28.787Z,5584
2019-02-02T12:32:36.348Z,5572
2019-02-02T12:33:37.025Z,5512
2019-02-02T12:34:37.450Z,5544
2019-02-02T12:35:38.144Z,5572
2019-02-02T12:36:39.836Z,5572
2019-02-02T12:37:41.084Z,5552
2019-02-02T12:38:40.825Z,5572
2019-02-02T12:39:42.252Z,5664
2019-02-02T12:40:43.909Z,5784
2019-02-02T12:41:44.322Z,5908
2019-02-02T12:42:45.136Z,5912
2019-02-02T12:43:45.793Z,5916
2019-02-02T12:44:47.436Z,5904
2019-02-02T12:45:53.969Z,5812
2019-02-02T12:46:05.214Z,5796
2019-02-02T12:46:15.546Z,5784
2019-02-02T12:47:12.683Z,5740
2019-02-02T12:48:13.116Z,5640
2019-02-02T12:49:14.367Z,5480
2019-02-02T12:50:14.189Z,5292
2019-02-02T12:51:14.632Z,5132
2019-02-02T12:52:16.324Z,4984
2019-02-02T12:53:17.027Z,4856
2019-02-02T12:54:17.718Z,4796
2019-02-02T12:55:18.689Z,4772
2019-02-02T12:56:18.888Z,4752
2019-02-02T12:57:19.282Z,4656
2019-02-02T12:58:20.561Z,4628
2019-02-02T12:59:20.981Z,4616
2019-02-02T13:00:22.351Z,4608
2019-02-02T13:01:22.485Z,4596
2019-02-02T13:02:39.819Z,4632
2019-02-02T13:03:36.705Z,4644
2019-02-02T13:04:37.676Z,4660
2019-02-02T13:05:40.922Z,4660
2019-02-02T13:06:41.624Z,4636
2019-02-02T13:07:42.534Z,4596
2019-02-02T13:08:42.673Z,4548
2019-02-02T13:09:44.162Z,4528
2019-02-02T13:10:45.137Z,4512
2019-02-02T13:11:45.784Z,4468
2019-02-02T13:12:46.208Z,4400
2019-02-02T13:13:47.618Z,4344
2019-02-02T13:14:47.755Z,4320
2019-02-02T13:15:49.172Z,4296
2019-02-02T13:16:51.985Z,4252
2019-02-02T13:17:53.514Z,4224
2019-02-02T13:18:53.626Z,4240
2019-02-02T13:19:53.704Z,4252
2019-02-02T13:20:53.856Z,4264
2019-02-02T13:21:54.553Z,4256
2019-02-02T13:22:55.017Z,4236
2019-02-02T13:23:56.129Z,4208
2019-02-02T13:24:56.823Z,4196
2019-02-02T13:26:10.996Z,4156
2019-02-02T13:27:11.377Z,4108
2019-02-02T13:28:12.210Z,4064
2019-02-02T13:29:12.345Z,4012
2019-02-02T13:30:13.040Z,3964
2019-02-02T13:31:13.737Z,3916
2019-02-02T13:32:14.829Z,3900
2019-02-02T13:33:15.832Z,3912
2019-02-02T13:34:16.263Z,3920
2019-02-02T13:35:17.957Z,3904
2019-02-02T13:36:18.660Z,3872
2019-02-02T13:37:19.206Z,3808
2019-02-02T13:38:20.189Z,3748
2019-02-02T13:39:20.324Z,3696
2019-02-02T13:40:20.744Z,3652
2019-02-02T13:41:21.721Z,3620
2019-02-02T13:42:22.250Z,3588
2019-02-02T13:43:22.774Z,3572
2019-02-02T13:44:23.745Z,3568
2019-02-02T13:45:23.894Z,3564
2019-02-02T13:46:24.866Z,3560
2019-02-02T13:47:25.698Z,3552
2019-02-02T13:48:26.390Z,3528
2019-02-02T13:49:26.876Z,3500
2019-02-02T13:50:28.038Z,3484
2019-02-02T13:51:32.193Z,3472
2019-02-02T13:52:29.425Z,3476
2019-02-02T13:53:29.394Z,3488
2019-02-02T13:54:29.936Z,3512
2019-02-02T13:55:30.078Z,3540
2019-02-02T13:56:31.697Z,3560
2019-02-02T13:57:32.107Z,3552
2019-02-02T13:58:32.517Z,3568
2019-02-02T13:59:32.947Z,3604
2019-02-02T14:00:33.371Z,3692
2019-02-02T14:01:46.397Z,3836
2019-02-02T14:02:46.496Z,3892
2019-02-02T14:03:47.189Z,3864
2019-02-02T14:04:47.602Z,3808
2019-02-02T14:05:49.021Z,3716
2019-02-02T14:06:49.716Z,3644
2019-02-02T14:07:50.421Z,3596
2019-02-02T14:08:51.508Z,3532
2019-02-02T14:09:52.201Z,3468
2019-02-02T14:10:52.621Z,3400
2019-02-02T14:11:53.615Z,3340